createdAt,value
2023-04-14T00:00:34.684Z,8.73
2023-04-14T00:03:01.352Z,7.40
2023-04-14T00:05:29.909Z,6.95
2023-04-14T00:07:56.528Z,8.40
2023-04-14T00:10:23.571Z,6.80
2023-04-14T00:12:50.483Z,7.18
2023-04-14T00:15:17.031Z,7.68
2023-04-14T00:17:43.585Z,9.38
2023-04-14T00:20:10.575Z,6.85
2023-04-14T00:22:37.309Z,6.60
2023-04-14T00:25:03.960Z,9.48
2023-04-14T00:27:31.131Z,6.65
2023-04-14T00:29:57.697Z,7.07
2023-04-14T00:32:24.296Z,7.10
2023-04-14T00:34:50.975Z,7.63
2023-04-14T00:37:17.650Z,7.80
2023-04-14T00:39:44.165Z,7.40
2023-04-14T00:42:10.861Z,7.78
2023-04-14T00:44:37.364Z,7.78
2023-04-14T00:47:04.095Z,7.38
2023-04-14T00:49:31.310Z,7.25
2023-04-14T00:51:58.111Z,7.32
2023-04-14T00:54:26.534Z,7.78
2023-04-14T00:56:54.113Z,8.70
2023-04-14T00:59:20.916Z,7.72
2023-04-14T01:01:47.878Z,7.28
2023-04-14T01:04:15.946Z,7.47
2023-04-14T01:06:42.600Z,6.78
2023-04-14T01:09:09.779Z,7.03
2023-04-14T01:12:11.636Z,8.43
2023-04-14T01:14:50.903Z,7.60
2023-04-14T01:17:31.561Z,7.70
2023-04-14T01:20:28.290Z,7.47
2023-04-14T01:23:07.521Z,7.25
2023-04-14T01:26:08.473Z,7.05
2023-04-14T01:28:55.039Z,8.82
2023-04-14T01:31:27.186Z,6.82
2023-04-14T01:34:03.134Z,7.28
2023-04-14T01:36:55.362Z,6.88
2023-04-14T01:41:56.343Z,6.90
2023-04-14T01:44:25.394Z,7.50
2023-04-14T01:46:54.881Z,7.43
2023-04-14T01:49:23.425Z,7.22
2023-04-14T01:51:50.803Z,6.88
2023-04-14T01:54:18.680Z,6.93
2023-04-14T01:56:47.385Z,7.03
2023-04-14T01:59:15.532Z,7.00
2023-04-14T02:01:44.084Z,6.72
2023-04-14T02:04:11.681Z,6.97
2023-04-14T02:06:40.659Z,8.43
2023-04-14T02:09:12.381Z,6.68
2023-04-14T02:11:40.265Z,6.53
2023-04-14T02:14:09.344Z,9.13
2023-04-14T02:16:37.984Z,6.80
2023-04-14T02:19:05.576Z,6.97
2023-04-14T02:21:35.274Z,6.30
2023-04-14T02:24:03.138Z,6.88
2023-04-14T02:26:32.849Z,6.53
2023-04-14T02:29:13.981Z,6.80
2023-04-14T02:31:45.572Z,7.43
2023-04-14T02:34:15.887Z,6.18
2023-04-14T02:36:53.557Z,7.00
2023-04-14T02:39:29.408Z,6.50
2023-04-14T02:42:07.999Z,7.00
2023-04-14T02:44:40.102Z,6.38
2023-04-14T02:47:10.445Z,6.47
2023-04-14T02:49:47.873Z,6.82
2023-04-14T02:52:17.771Z,7.15
2023-04-14T02:54:47.904Z,7.32
2023-04-14T02:57:14.908Z,7.57
2023-04-14T02:59:47.568Z,7.50
2023-04-14T03:02:17.461Z,7.20
2023-04-14T03:04:49.258Z,7.70
2023-04-14T03:07:37.011Z,7.40
2023-04-14T03:10:05.467Z,7.50
2023-04-14T03:12:33.542Z,7.70
2023-04-14T03:15:02.152Z,7.28
2023-04-14T03:17:29.135Z,7.25
2023-04-14T03:19:56.623Z,7.25
2023-04-14T03:22:26.578Z,7.10
2023-04-14T03:24:58.177Z,7.22
2023-04-14T03:27:30.172Z,6.95
2023-04-14T03:30:06.888Z,7.18
2023-04-14T03:32:42.408Z,6.85
2023-04-14T03:35:15.400Z,6.32
2023-04-14T03:37:43.117Z,7.70
2023-04-14T03:40:11.357Z,6.95
2023-04-14T03:42:44.454Z,7.80
2023-04-14T03:45:12.682Z,8.30
2023-04-14T03:47:41.271Z,6.40
2023-04-14T03:50:10.292Z,8.80
2023-04-14T03:52:40.161Z,6.28
2023-04-14T03:55:12.335Z,6.78
2023-04-14T03:57:41.874Z,8.10
2023-04-14T04:00:11.290Z,6.32
2023-04-14T04:02:42.897Z,6.47
2023-04-14T04:05:12.398Z,8.68
2023-04-14T04:07:41.327Z,6.88
2023-04-14T04:10:08.979Z,7.03
2023-04-14T04:12:37.467Z,6.50
2023-04-14T04:15:07.700Z,7.13
2023-04-14T04:17:35.399Z,6.75
2023-04-14T04:20:09.896Z,6.82
2023-04-14T04:22:39.394Z,6.95
2023-04-14T04:25:07.646Z,7.38
2023-04-14T04:27:37.805Z,6.75
2023-04-14T04:30:14.812Z,7.32
2023-04-14T04:32:41.530Z,7.55
2023-04-14T04:35:11.366Z,7.00
2023-04-14T04:37:41.904Z,6.80
2023-04-14T04:40:09.070Z,7.50
2023-04-14T04:42:40.973Z,7.22
2023-04-14T04:45:08.637Z,10.80
2023-04-14T04:47:36.146Z,7.28
2023-04-14T04:50:02.680Z,7.03
2023-04-14T04:52:29.548Z,8.00
2023-04-14T04:54:56.177Z,7.93
2023-04-14T04:57:22.728Z,8.52
2023-04-14T04:59:49.342Z,8.98
2023-04-14T05:02:16.385Z,8.85
2023-04-14T05:04:43.369Z,9.02
2023-04-14T05:07:09.928Z,9.90
2023-04-14T05:09:36.550Z,10.30
2023-04-14T05:12:03.065Z,10.43
2023-04-14T05:14:29.584Z,10.05
2023-04-14T05:16:56.931Z,9.70
2023-04-14T05:19:23.665Z,9.85
2023-04-14T05:21:50.464Z,9.55
2023-04-14T05:24:16.966Z,10.32
2023-04-14T05:26:58.361Z,10.55
2023-04-14T05:29:30.268Z,11.55
2023-04-14T05:31:56.808Z,12.02
2023-04-14T05:34:23.400Z,13.38
2023-04-14T05:36:49.945Z,15.95
2023-04-14T05:39:16.531Z,17.73
2023-04-14T05:41:43.054Z,20.50
2023-04-14T05:44:09.595Z,19.70
2023-04-14T05:46:36.282Z,19.63
2023-04-14T05:49:04.775Z,18.17
2023-04-14T05:51:31.365Z,16.52
2023-04-14T05:53:58.150Z,15.30
2023-04-14T05:56:25.088Z,14.05
2023-04-14T05:58:54.196Z,12.50
2023-04-14T06:01:20.864Z,11.55
2023-04-14T06:03:47.682Z,11.25
2023-04-14T06:06:14.356Z,10.77
2023-04-14T06:08:40.882Z,11.27
2023-04-14T06:11:07.393Z,10.63
2023-04-14T06:13:36.084Z,9.73
2023-04-14T06:16:03.153Z,11.13
2023-04-14T06:18:29.767Z,9.48
2023-04-14T06:20:56.349Z,10.40
2023-04-14T06:23:24.516Z,10.77
2023-04-14T06:25:52.282Z,11.15
2023-04-14T06:28:19.889Z,9.57
2023-04-14T06:30:46.362Z,9.90
2023-04-14T06:33:12.906Z,9.95
2023-04-14T06:35:39.452Z,9.57
2023-04-14T06:38:05.956Z,10.32
2023-04-14T06:40:32.448Z,8.77
2023-04-14T06:42:58.965Z,9.45
2023-04-14T06:45:25.526Z,9.20
2023-04-14T06:47:52.059Z,9.23
2023-04-14T06:50:18.731Z,9.43
2023-04-14T06:52:45.569Z,8.93
2023-04-14T06:55:12.108Z,9.50
2023-04-14T06:57:38.614Z,9.20
2023-04-14T07:00:09.399Z,9.82
2023-04-14T07:02:36.415Z,8.95
2023-04-14T07:05:03.191Z,8.02
2023-04-14T07:07:29.810Z,8.25
2023-04-14T07:09:56.370Z,7.85
2023-04-14T07:12:22.896Z,8.77
2023-04-14T07:14:52.426Z,10.27
2023-04-14T07:17:19.807Z,8.43
2023-04-14T07:19:46.812Z,8.43
2023-04-14T07:22:13.339Z,8.13
2023-04-14T07:24:40.343Z,8.95
2023-04-14T07:27:07.392Z,7.57
2023-04-14T07:29:34.897Z,8.07
2023-04-14T07:32:01.658Z,8.00
2023-04-14T07:34:28.424Z,8.05
2023-04-14T07:36:55.038Z,7.72
2023-04-14T07:39:23.635Z,10.18
2023-04-14T07:41:50.481Z,7.72
2023-04-14T07:44:17.033Z,8.25
2023-04-14T07:46:43.894Z,8.13
2023-04-14T07:49:10.711Z,8.38
2023-04-14T07:51:37.229Z,8.98
2023-04-14T07:54:05.760Z,7.55
2023-04-14T07:56:32.357Z,8.00
2023-04-14T07:58:59.087Z,7.40
2023-04-14T08:01:25.941Z,7.35
2023-04-14T08:03:52.656Z,7.05
2023-04-14T08:06:19.759Z,7.15
2023-04-14T08:08:46.601Z,7.03
2023-04-14T08:11:13.318Z,6.90
2023-04-14T08:13:39.867Z,6.40
2023-04-14T08:16:06.641Z,6.78
2023-04-14T08:18:33.133Z,6.85
2023-04-14T08:20:59.643Z,6.78
2023-04-14T08:23:26.522Z,6.63
2023-04-14T08:25:53.168Z,6.45
2023-04-14T08:28:19.676Z,6.65
2023-04-14T08:30:47.674Z,6.88
2023-04-14T08:33:14.305Z,6.78
2023-04-14T08:35:42.652Z,6.93
2023-04-14T08:38:10.172Z,6.47
2023-04-14T08:40:39.584Z,6.55
2023-04-14T08:43:06.998Z,6.55
2023-04-14T08:45:34.561Z,6.25
2023-04-14T08:48:03.695Z,6.15
2023-04-14T08:50:37.705Z,5.95
2023-04-14T08:53:08.542Z,5.50
2023-04-14T08:55:39.112Z,5.50
2023-04-14T08:58:07.426Z,5.22
2023-04-14T09:00:35.204Z,6.30
2023-04-14T09:03:02.547Z,5.25
2023-04-14T09:05:29.593Z,5.20
2023-04-14T09:07:56.757Z,5.65
2023-04-14T09:10:23.978Z,4.90
2023-04-14T09:12:51.075Z,4.85
2023-04-14T09:15:17.775Z,5.15
2023-04-14T09:17:44.461Z,4.20
2023-04-14T09:20:36.484Z,4.80
2023-04-14T09:22:59.015Z,4.75
2023-04-14T09:25:25.710Z,5.10
2023-04-14T09:27:52.313Z,5.10
2023-04-14T09:30:19.255Z,5.32
2023-04-14T09:32:46.003Z,5.10
2023-04-14T09:35:14.206Z,4.90
2023-04-14T09:37:45.282Z,5.00
2023-04-14T09:40:28.834Z,4.70
2023-04-14T09:42:56.805Z,6.18
2023-04-14T09:45:40.302Z,4.68
2023-04-14T09:48:08.208Z,5.35
2023-04-14T09:51:00.602Z,5.03
2023-04-14T09:53:32.447Z,4.50
2023-04-14T09:58:32.721Z,4.57
2023-04-14T10:00:59.507Z,5.00
2023-04-14T10:03:34.599Z,4.40
2023-04-14T10:06:04.571Z,6.15
2023-04-14T10:08:36.866Z,5.10
2023-04-14T10:11:35.047Z,5.22
2023-04-14T10:14:04.030Z,6.88
2023-04-14T10:16:31.487Z,5.15
2023-04-14T10:18:58.421Z,4.63
2023-04-14T10:21:27.573Z,5.10
2023-04-14T10:23:59.710Z,5.80
2023-04-14T10:26:26.497Z,5.65
2023-04-14T10:28:54.544Z,5.00
2023-04-14T10:31:26.315Z,5.07
2023-04-14T10:33:52.890Z,4.82
2023-04-14T10:36:29.269Z,4.57
2023-04-14T10:39:01.019Z,4.78
2023-04-14T10:41:37.768Z,4.85
2023-04-14T10:44:04.367Z,4.80
2023-04-14T10:46:46.582Z,5.20
2023-04-14T10:49:13.383Z,4.57
2023-04-14T10:51:39.942Z,5.20
2023-04-14T10:54:19.220Z,4.65
2023-04-14T10:57:08.098Z,4.60
2023-04-14T10:59:34.699Z,4.50
2023-04-14T11:02:01.432Z,5.00
2023-04-14T11:04:28.190Z,4.70
2023-04-14T11:06:55.483Z,4.57
2023-04-14T11:09:31.985Z,4.80
2023-04-14T11:12:22.265Z,4.18
2023-04-14T11:14:48.848Z,4.82
2023-04-14T11:17:22.776Z,4.25
2023-04-14T11:19:54.305Z,4.35
2023-04-14T11:22:38.416Z,4.00
2023-04-14T11:25:05.368Z,4.30
2023-04-14T11:27:32.708Z,4.30
2023-04-14T11:30:00.674Z,4.43
2023-04-14T11:32:27.274Z,4.35
2023-04-14T11:34:53.986Z,4.22
2023-04-14T11:37:22.497Z,4.20
2023-04-14T11:39:51.545Z,4.30
2023-04-14T11:42:19.204Z,4.22
2023-04-14T11:44:45.686Z,4.53
2023-04-14T11:47:12.212Z,4.32
2023-04-14T11:49:39.222Z,4.20
2023-04-14T11:52:07.764Z,3.90
2023-04-14T11:54:35.891Z,4.30
2023-04-14T11:57:02.837Z,4.50
2023-04-14T11:59:29.543Z,4.30
2023-04-14T12:01:58.151Z,4.38
2023-04-14T12:04:24.817Z,4.25
2023-04-14T12:06:53.216Z,4.18
2023-04-14T12:09:21.597Z,4.30
2023-04-14T12:11:55.374Z,4.00
2023-04-14T12:14:21.972Z,4.15
2023-04-14T12:16:48.892Z,4.10
2023-04-14T12:19:15.481Z,4.68
2023-04-14T12:21:42.090Z,4.05
2023-04-14T12:24:09.008Z,4.20
2023-04-14T12:26:36.465Z,4.05
2023-04-14T12:29:03.357Z,4.53
2023-04-14T12:31:30.550Z,5.22
2023-04-14T12:34:03.717Z,4.22
2023-04-14T12:36:48.150Z,4.10
2023-04-14T12:39:16.506Z,4.28
2023-04-14T12:41:43.112Z,4.40
2023-04-14T12:44:20.443Z,4.18
2023-04-14T12:46:53.644Z,4.18
2023-04-14T12:49:33.735Z,4.57
2023-04-14T12:52:00.998Z,4.80
2023-04-14T12:54:42.720Z,4.22
2023-04-14T12:57:09.266Z,4.55
2023-04-14T12:59:39.442Z,4.15
2023-04-14T13:02:07.251Z,4.28
2023-04-14T13:04:33.864Z,4.40
2023-04-14T13:07:00.383Z,4.25
2023-04-14T13:09:27.845Z,4.20
2023-04-14T13:11:57.517Z,4.57
2023-04-14T13:14:24.270Z,4.10
2023-04-14T13:16:50.773Z,4.10
2023-04-14T13:19:17.326Z,4.43
2023-04-14T13:21:43.833Z,4.20
2023-04-14T13:24:10.508Z,4.15
2023-04-14T13:26:37.830Z,4.28
2023-04-14T13:29:04.534Z,4.00
2023-04-14T13:31:31.311Z,4.10
2023-04-14T13:33:57.892Z,4.20
2023-04-14T13:36:24.543Z,4.82
2023-04-14T13:38:51.195Z,4.20
2023-04-14T13:41:19.495Z,4.10
2023-04-14T13:43:46.165Z,4.55
2023-04-14T13:46:12.828Z,4.43
2023-04-14T13:48:39.466Z,4.20
2023-04-14T13:51:06.080Z,4.60
2023-04-14T13:53:32.921Z,4.32
2023-04-14T13:55:59.580Z,4.43
2023-04-14T13:58:26.837Z,4.35
2023-04-14T14:00:53.689Z,4.40
2023-04-14T14:03:20.427Z,4.30
2023-04-14T14:05:47.174Z,4.10
2023-04-14T14:08:16.995Z,3.83
2023-04-14T14:10:43.550Z,4.60
2023-04-14T14:13:10.156Z,4.10
2023-04-14T14:15:36.752Z,4.18
2023-04-14T14:18:03.417Z,4.13
2023-04-14T14:20:30.316Z,4.35
2023-04-14T14:22:57.440Z,4.18
2023-04-14T14:25:24.096Z,4.10
2023-04-14T14:27:51.802Z,4.13
2023-04-14T14:30:18.495Z,3.95
2023-04-14T14:32:45.016Z,4.15
2023-04-14T14:35:11.514Z,3.90
2023-04-14T14:37:38.123Z,3.85
2023-04-14T14:40:05.546Z,4.00
2023-04-14T14:42:32.121Z,3.90
2023-04-14T14:44:59.485Z,4.18
2023-04-14T14:47:28.109Z,4.00
2023-04-14T14:50:00.667Z,3.83
2023-04-14T14:52:32.217Z,3.88
2023-04-14T14:54:58.942Z,4.23
2023-04-14T14:57:26.380Z,3.92
2023-04-14T14:59:53.530Z,3.80
2023-04-14T15:02:23.468Z,3.80
2023-04-14T15:04:50.284Z,3.55
2023-04-14T15:07:17.470Z,3.60
2023-04-14T15:09:46.731Z,3.70
2023-04-14T15:12:13.364Z,3.55
2023-04-14T15:14:40.112Z,3.60
2023-04-14T15:17:07.076Z,3.38
2023-04-14T15:19:33.684Z,3.45
2023-04-14T15:22:01.082Z,3.20
2023-04-14T15:24:27.624Z,3.58
2023-04-14T15:26:54.198Z,3.50
2023-04-14T15:29:20.717Z,3.40
2023-04-14T15:31:47.301Z,3.70
2023-04-14T15:34:13.786Z,3.72
2023-04-14T15:36:40.346Z,3.65
2023-04-14T15:39:07.027Z,4.20
2023-04-14T15:41:33.536Z,3.92
2023-04-14T15:44:00.599Z,3.60
2023-04-14T15:46:27.433Z,4.05
2023-04-14T15:48:53.937Z,4.05
2023-04-14T15:51:20.450Z,4.15
2023-04-14T15:53:47.004Z,4.40
2023-04-14T15:56:14.117Z,4.10
2023-04-14T15:58:40.635Z,4.35
2023-04-14T16:01:07.406Z,3.92
2023-04-14T16:03:34.091Z,4.05
2023-04-14T16:06:04.207Z,4.03
2023-04-14T16:08:30.832Z,4.07
2023-04-14T16:10:57.502Z,4.43
2023-04-14T16:13:24.119Z,4.15
2023-04-14T16:15:50.907Z,4.18
2023-04-14T16:18:17.473Z,4.13
2023-04-14T16:20:44.089Z,4.28
2023-04-14T16:23:10.716Z,4.53
2023-04-14T16:25:37.620Z,4.32
2023-04-14T16:28:04.103Z,4.05
2023-04-14T16:30:31.625Z,4.32
2023-04-14T16:32:58.318Z,4.40
2023-04-14T16:35:25.642Z,4.07
2023-04-14T16:37:53.158Z,4.50
2023-04-14T16:40:19.698Z,4.30
2023-04-14T16:42:47.232Z,4.25
2023-04-14T16:45:13.895Z,3.97
2023-04-14T16:47:40.518Z,4.10
2023-04-14T16:50:07.737Z,4.10
2023-04-14T16:52:35.082Z,4.07
2023-04-14T16:55:01.832Z,4.05
2023-04-14T16:57:28.523Z,4.38
2023-04-14T16:59:54.987Z,4.03
2023-04-14T17:02:21.807Z,4.22
2023-04-14T17:04:48.725Z,4.00
2023-04-14T17:07:15.421Z,4.20
2023-04-14T17:09:42.721Z,4.30
2023-04-14T17:12:09.721Z,4.18
2023-04-14T17:14:37.102Z,4.13
2023-04-14T17:17:04.033Z,4.07
2023-04-14T17:19:30.582Z,4.10
2023-04-14T17:21:57.365Z,4.22
2023-04-14T17:24:23.917Z,4.32
2023-04-14T17:26:51.029Z,4.32
2023-04-14T17:29:17.565Z,4.35
2023-04-14T17:31:44.912Z,4.55
2023-04-14T17:34:11.880Z,4.80
2023-04-14T17:36:39.238Z,4.53
2023-04-14T17:39:06.753Z,4.45
2023-04-14T17:41:33.456Z,4.53
2023-04-14T17:44:00.259Z,4.78
2023-04-14T17:46:33.488Z,4.80
2023-04-14T17:49:03.964Z,4.75
2023-04-14T17:51:31.235Z,4.50
2023-04-14T17:53:58.206Z,4.82
2023-04-14T17:56:25.418Z,5.55
2023-04-14T17:58:52.472Z,4.97
2023-04-14T18:01:19.619Z,5.03
2023-04-14T18:03:46.386Z,5.10
2023-04-14T18:06:13.353Z,4.82
2023-04-14T18:08:39.900Z,5.28
2023-04-14T18:11:06.609Z,5.68
2023-04-14T18:13:33.502Z,5.80
2023-04-14T18:16:00.112Z,6.07
2023-04-14T18:18:27.388Z,5.40
2023-04-14T18:20:53.917Z,5.15
2023-04-14T18:23:20.511Z,5.05
2023-04-14T18:28:16.512Z,4.97
2023-04-14T18:30:43.601Z,4.25
2023-04-14T18:33:10.131Z,4.13
2023-04-14T18:35:36.661Z,4.40
2023-04-14T18:38:03.216Z,4.95
2023-04-14T18:40:29.890Z,4.88
2023-04-14T18:42:57.301Z,4.57
2023-04-14T18:45:23.835Z,4.60
2023-04-14T18:47:50.671Z,5.22
2023-04-14T18:50:18.164Z,5.03
2023-04-14T18:52:44.698Z,4.97
2023-04-14T18:55:11.228Z,5.18
2023-04-14T18:57:38.174Z,6.00
2023-04-14T19:00:08.353Z,6.05
2023-04-14T19:02:35.125Z,5.80
2023-04-14T19:05:02.324Z,5.10
2023-04-14T19:07:28.957Z,4.50
2023-04-14T19:09:55.597Z,4.35
2023-04-14T19:12:28.583Z,5.20
2023-04-14T19:14:55.552Z,6.68
2023-04-14T19:17:22.420Z,12.73
2023-04-14T19:19:49.095Z,29.90
2023-04-14T19:22:16.743Z,39.70
2023-04-14T19:24:43.269Z,45.13
2023-04-14T19:27:10.223Z,50.30
2023-04-14T19:29:36.840Z,46.53
2023-04-14T19:32:04.933Z,39.80
2023-04-14T19:34:31.952Z,32.17
2023-04-14T19:36:58.479Z,22.23
2023-04-14T19:39:25.000Z,12.73
2023-04-14T19:41:51.784Z,8.57
2023-04-14T19:44:18.294Z,6.53
2023-04-14T19:46:46.358Z,6.50
2023-04-14T19:49:13.328Z,6.40
2023-04-14T19:51:39.982Z,6.20
2023-04-14T19:54:07.230Z,5.75
2023-04-14T19:56:34.045Z,8.82
2023-04-14T19:59:01.247Z,6.15
2023-04-14T20:01:28.188Z,6.32
2023-04-14T20:04:10.464Z,6.57
2023-04-14T20:06:40.505Z,6.20
2023-04-14T20:09:07.048Z,6.38
2023-04-14T20:11:33.550Z,5.82
2023-04-14T20:14:00.218Z,7.00
2023-04-14T20:16:26.766Z,6.72
2023-04-14T20:18:53.414Z,6.70
2023-04-14T20:21:20.007Z,6.68
2023-04-14T20:23:46.982Z,9.77
2023-04-14T20:26:13.688Z,6.63
2023-04-14T20:28:40.438Z,6.82
2023-04-14T20:31:08.761Z,7.28
2023-04-14T20:33:36.626Z,7.32
2023-04-14T20:36:03.569Z,6.75
2023-04-14T20:38:30.187Z,7.40
2023-04-14T20:40:56.978Z,7.53
2023-04-14T20:43:23.587Z,7.40
2023-04-14T20:45:52.487Z,8.50
2023-04-14T20:48:19.415Z,7.28
2023-04-14T20:50:49.378Z,6.80
2023-04-14T20:53:16.170Z,7.28
2023-04-14T20:55:43.397Z,6.95
2023-04-14T20:58:09.871Z,7.63
2023-04-14T21:00:36.373Z,7.22
2023-04-14T21:03:03.532Z,7.50
2023-04-14T21:05:30.222Z,6.50
2023-04-14T21:07:56.769Z,7.60
2023-04-14T21:10:23.328Z,7.55
2023-04-14T21:15:28.580Z,7.97
2023-04-14T21:15:53.467Z,7.40
2023-04-14T21:18:23.160Z,8.00
2023-04-14T21:20:49.791Z,8.07
2023-04-14T21:23:16.776Z,8.05
2023-04-14T21:25:43.304Z,8.20
2023-04-14T21:28:10.349Z,7.72
2023-04-14T21:30:36.870Z,6.95
2023-04-14T21:33:06.967Z,7.03
2023-04-14T21:35:34.861Z,6.80
2023-04-14T21:38:02.424Z,6.93
2023-04-14T21:40:29.585Z,7.05
2023-04-14T21:42:56.610Z,7.90
2023-04-14T21:45:23.482Z,6.45
2023-04-14T21:47:50.173Z,6.90
2023-04-14T21:50:17.308Z,6.63
2023-04-14T21:52:43.889Z,6.55
2023-04-14T21:55:10.473Z,6.47
2023-04-14T21:57:43.881Z,8.13
2023-04-14T22:00:17.606Z,6.63
2023-04-14T22:02:45.010Z,7.78
2023-04-14T22:05:11.781Z,6.93
2023-04-14T22:07:38.713Z,6.82
2023-04-14T22:10:06.332Z,6.68
2023-04-14T22:12:37.559Z,6.88
2023-04-14T22:15:04.462Z,6.63
2023-04-14T22:17:31.268Z,6.60
2023-04-14T22:19:59.196Z,7.28
2023-04-14T22:22:25.741Z,7.50
2023-04-14T22:24:54.094Z,8.00
2023-04-14T22:27:21.007Z,8.15
2023-04-14T22:29:47.842Z,7.32
2023-04-14T22:32:15.862Z,8.13
2023-04-14T22:34:42.523Z,7.60
2023-04-14T22:37:09.077Z,8.23
2023-04-14T22:39:35.813Z,7.57
2023-04-14T22:42:02.301Z,7.22
2023-04-14T22:44:28.846Z,7.50
2023-04-14T22:46:56.131Z,7.35
2023-04-14T22:49:23.010Z,7.60
2023-04-14T22:51:49.564Z,7.30
2023-04-14T22:54:16.346Z,7.75
2023-04-14T22:56:42.895Z,7.30
2023-04-14T22:59:09.604Z,8.63
2023-04-14T23:01:36.237Z,7.28
2023-04-14T23:04:03.181Z,7.60
2023-04-14T23:06:29.853Z,7.47
2023-04-14T23:08:56.334Z,7.38
2023-04-14T23:11:23.217Z,8.00
2023-04-14T23:13:50.715Z,8.27
2023-04-14T23:16:20.033Z,7.75
2023-04-14T23:18:51.946Z,8.23
2023-04-14T23:23:51.666Z,8.20
2023-04-14T23:26:19.771Z,9.20
2023-04-14T23:28:46.794Z,9.90
2023-04-14T23:31:13.352Z,9.60
2023-04-14T23:33:40.076Z,9.50
2023-04-14T23:36:06.948Z,9.35
2023-04-14T23:38:33.588Z,11.70
2023-04-14T23:41:00.380Z,9.30
2023-04-14T23:43:27.575Z,9.50
2023-04-14T23:45:54.430Z,9.52
2023-04-14T23:48:21.055Z,8.50
2023-04-14T23:51:00.402Z,8.70
2023-04-14T23:53:34.746Z,8.73
2023-04-14T23:56:02.919Z,8.65
2023-04-14T23:58:30.330Z,8.88
